createdAt,value
2019-06-15T00:00:23.451Z,11.33
2019-06-15T00:02:52.837Z,11.00
2019-06-15T00:05:22.160Z,12.63
2019-06-15T00:07:51.569Z,10.70
2019-06-15T00:10:20.925Z,11.17
2019-06-15T00:12:50.258Z,11.63
2019-06-15T00:15:20.007Z,14.70
2019-06-15T00:17:49.392Z,10.97
2019-06-15T00:20:19.187Z,12.50
2019-06-15T00:22:48.481Z,11.03
2019-06-15T00:25:18.677Z,11.03
2019-06-15T00:27:48.027Z,12.40
2019-06-15T00:30:19.020Z,13.70
2019-06-15T00:32:48.459Z,10.93
2019-06-15T00:35:18.409Z,10.73
2019-06-15T00:37:47.765Z,11.60
2019-06-15T00:40:17.462Z,11.50
2019-06-15T00:42:46.800Z,14.30
2019-06-15T00:45:16.094Z,11.33
2019-06-15T00:47:45.461Z,12.10
2019-06-15T00:50:16.049Z,14.17
2019-06-15T00:52:45.377Z,13.27
2019-06-15T00:55:14.669Z,11.93
2019-06-15T00:57:44.003Z,14.10
2019-06-15T01:00:13.783Z,14.00
2019-06-15T01:02:43.073Z,11.97
2019-06-15T01:05:12.807Z,13.83
2019-06-15T01:07:42.194Z,11.80
2019-06-15T01:10:14.451Z,13.00
2019-06-15T01:12:44.293Z,11.67
2019-06-15T01:15:15.213Z,11.33
2019-06-15T01:17:44.626Z,12.50
2019-06-15T01:20:14.970Z,11.33
2019-06-15T01:22:44.254Z,11.30
2019-06-15T01:25:14.107Z,11.17
2019-06-15T01:27:43.482Z,10.97
2019-06-15T01:30:14.541Z,11.60
2019-06-15T01:32:43.829Z,12.00
2019-06-15T01:35:14.277Z,10.77
2019-06-15T01:37:43.552Z,10.93
2019-06-15T01:40:14.886Z,10.63
2019-06-15T01:42:44.221Z,11.27
2019-06-15T01:45:15.050Z,11.87
2019-06-15T01:47:44.385Z,13.23
2019-06-15T01:50:16.490Z,10.97
2019-06-15T01:52:45.837Z,11.03
2019-06-15T01:55:20.958Z,11.23
2019-06-15T01:57:46.136Z,13.00
2019-06-15T02:00:29.672Z,11.03
2019-06-15T02:02:59.057Z,12.70
2019-06-15T02:05:28.413Z,12.67
2019-06-15T02:07:57.733Z,12.37
2019-06-15T02:10:31.101Z,11.17
2019-06-15T02:13:00.972Z,11.53
2019-06-15T02:15:30.255Z,10.63
2019-06-15T02:17:59.546Z,12.10
2019-06-15T02:20:28.953Z,12.13
2019-06-15T02:22:58.238Z,11.47
2019-06-15T02:25:35.859Z,14.40
2019-06-15T02:28:00.917Z,11.90
2019-06-15T02:30:32.825Z,12.53
2019-06-15T02:33:02.553Z,12.60
2019-06-15T02:35:31.838Z,11.60
2019-06-15T02:38:01.162Z,12.27
2019-06-15T02:40:30.458Z,10.00
2019-06-15T02:42:59.738Z,12.90
2019-06-15T02:45:29.106Z,13.37
2019-06-15T02:47:58.527Z,15.03
2019-06-15T02:50:27.827Z,13.30
2019-06-15T02:52:57.179Z,12.13
2019-06-15T02:55:26.634Z,10.90
2019-06-15T02:57:56.037Z,11.60
2019-06-15T03:01:02.696Z,11.07
2019-06-15T03:03:32.035Z,10.83
2019-06-15T03:06:02.226Z,11.10
2019-06-15T03:08:31.665Z,9.93
2019-06-15T03:11:01.008Z,14.57
2019-06-15T03:13:31.990Z,14.50
2019-06-15T03:16:01.322Z,10.63
2019-06-15T03:18:30.604Z,11.47
2019-06-15T03:20:59.931Z,9.30
2019-06-15T03:23:29.293Z,8.30
2019-06-15T03:26:05.449Z,10.00
2019-06-15T03:28:29.735Z,9.07
2019-06-15T03:30:59.215Z,10.23
2019-06-15T03:33:28.562Z,12.23
2019-06-15T03:35:57.964Z,7.87
2019-06-15T03:38:27.297Z,8.30
2019-06-15T03:40:56.574Z,8.07
2019-06-15T03:43:25.860Z,11.73
2019-06-15T03:45:55.215Z,10.53
2019-06-15T03:48:24.492Z,9.87
2019-06-15T03:50:53.809Z,8.83
2019-06-15T03:53:23.139Z,13.63
2019-06-15T03:55:52.456Z,9.83
2019-06-15T03:58:21.737Z,9.97
2019-06-15T04:01:03.198Z,10.37
2019-06-15T04:03:32.578Z,10.40
2019-06-15T04:06:01.909Z,8.60
2019-06-15T04:08:31.237Z,8.20
2019-06-15T04:11:00.527Z,10.23
2019-06-15T04:13:29.858Z,10.70
2019-06-15T04:15:59.136Z,9.77
2019-06-15T04:18:28.475Z,8.60
2019-06-15T04:20:58.782Z,8.30
2019-06-15T04:23:28.130Z,11.27
2019-06-15T04:25:57.413Z,9.10
2019-06-15T04:28:26.741Z,8.63
2019-06-15T04:30:56.025Z,9.20
2019-06-15T04:33:25.348Z,9.10
2019-06-15T04:35:54.637Z,7.73
2019-06-15T04:38:23.962Z,8.60
2019-06-15T04:40:53.249Z,8.27
2019-06-15T04:43:22.599Z,10.30
2019-06-15T04:45:51.955Z,8.03
2019-06-15T04:48:21.245Z,11.60
2019-06-15T04:50:50.566Z,10.27
2019-06-15T04:53:19.853Z,8.93
2019-06-15T04:55:49.209Z,9.33
2019-06-15T04:58:18.563Z,10.73
2019-06-15T05:00:47.937Z,8.47
2019-06-15T05:03:17.291Z,8.67
2019-06-15T05:05:46.578Z,10.33
2019-06-15T05:08:15.930Z,10.13
2019-06-15T05:10:45.616Z,11.97
2019-06-15T05:13:14.949Z,12.33
2019-06-15T05:15:44.244Z,9.83
2019-06-15T05:18:13.602Z,9.27
2019-06-15T05:20:42.937Z,11.77
2019-06-15T05:23:12.263Z,11.43
2019-06-15T05:25:41.591Z,8.90
2019-06-15T05:28:10.973Z,10.13
2019-06-15T05:30:40.299Z,10.83
2019-06-15T05:33:10.185Z,12.13
2019-06-15T05:35:39.533Z,19.07
2019-06-15T05:38:08.814Z,12.57
2019-06-15T05:40:38.161Z,10.57
2019-06-15T05:43:07.445Z,11.83
2019-06-15T05:45:36.790Z,16.93
2019-06-15T05:48:06.149Z,18.50
2019-06-15T05:50:35.491Z,14.40
2019-06-15T05:53:05.195Z,15.80
2019-06-15T05:55:35.535Z,13.27
2019-06-15T05:58:07.663Z,13.53
2019-06-15T06:00:36.985Z,13.63
2019-06-15T06:03:06.390Z,14.23
2019-06-15T06:05:35.698Z,16.57
2019-06-15T06:08:05.459Z,12.60
2019-06-15T06:10:35.798Z,10.57
2019-06-15T06:13:06.188Z,14.07
2019-06-15T06:15:35.529Z,12.93
2019-06-15T06:18:04.990Z,13.50
2019-06-15T06:20:34.333Z,15.23
2019-06-15T06:23:04.705Z,12.80
2019-06-15T06:25:34.126Z,12.57
2019-06-15T06:28:03.529Z,12.90
2019-06-15T06:30:32.974Z,13.07
2019-06-15T06:33:02.344Z,11.93
2019-06-15T06:35:34.253Z,12.33
2019-06-15T06:38:03.675Z,11.27
2019-06-15T06:40:34.138Z,10.63
2019-06-15T06:43:03.497Z,20.80
2019-06-15T06:45:32.874Z,16.77
2019-06-15T06:48:03.245Z,15.53
2019-06-15T06:50:32.730Z,11.57
2019-06-15T06:53:02.114Z,13.70
2019-06-15T06:55:31.470Z,11.03
2019-06-15T06:58:00.920Z,11.93
2019-06-15T07:00:30.324Z,13.77
2019-06-15T07:02:59.727Z,13.23
2019-06-15T07:05:29.183Z,14.23
2019-06-15T07:07:59.596Z,12.23
2019-06-15T07:10:28.981Z,16.52
2019-06-15T07:12:58.300Z,14.77
2019-06-15T07:15:27.675Z,13.83
2019-06-15T07:17:57.021Z,11.67
2019-06-15T07:20:26.401Z,13.22
2019-06-15T07:22:55.806Z,14.03
2019-06-15T07:25:25.209Z,11.73
2019-06-15T07:28:07.105Z,13.27
2019-06-15T07:30:25.815Z,17.90
2019-06-15T07:32:55.342Z,205.50
2019-06-15T07:35:26.140Z,16.00
2019-06-15T07:37:56.014Z,82.83
2019-06-15T07:40:26.117Z,24.82
2019-06-15T07:42:55.551Z,13.80
2019-06-15T07:45:24.905Z,14.83
2019-06-15T07:47:54.269Z,12.70
2019-06-15T07:50:23.605Z,13.20
2019-06-15T07:52:52.927Z,19.80
2019-06-15T07:55:22.301Z,16.43
2019-06-15T07:57:51.663Z,11.90
2019-06-15T08:00:22.403Z,14.40
2019-06-15T08:02:51.886Z,18.33
2019-06-15T08:05:22.290Z,12.45
2019-06-15T08:07:51.737Z,13.43
2019-06-15T08:10:21.169Z,12.70
2019-06-15T08:12:50.555Z,12.90
2019-06-15T08:15:20.281Z,14.00
2019-06-15T08:17:50.617Z,13.43
2019-06-15T08:20:23.230Z,17.50
2019-06-15T08:22:52.643Z,12.85
2019-06-15T08:25:21.997Z,14.50
2019-06-15T08:27:51.369Z,15.10
2019-06-15T08:30:27.633Z,17.00
2019-06-15T08:32:57.013Z,14.98
2019-06-15T08:35:26.369Z,16.65
2019-06-15T08:37:55.717Z,13.03
2019-06-15T08:40:25.116Z,12.33
2019-06-15T08:42:54.485Z,13.10
2019-06-15T08:45:23.929Z,14.80
2019-06-15T08:47:53.286Z,14.90
2019-06-15T08:50:22.629Z,21.35
2019-06-15T08:52:52.143Z,39.40
2019-06-15T08:55:21.608Z,11.68
2019-06-15T08:57:51.069Z,12.90
2019-06-15T09:00:21.448Z,12.35
2019-06-15T09:02:50.947Z,12.30
2019-06-15T09:05:20.386Z,15.15
2019-06-15T09:07:49.788Z,14.07
2019-06-15T09:10:19.987Z,13.22
2019-06-15T09:12:49.358Z,11.80
2019-06-15T09:15:30.834Z,11.90
2019-06-15T09:18:00.152Z,17.55
2019-06-15T09:20:29.518Z,24.55
2019-06-15T09:22:58.903Z,17.42
2019-06-15T09:25:28.335Z,22.30
2019-06-15T09:27:57.690Z,15.48
2019-06-15T09:30:28.101Z,19.62
2019-06-15T09:32:58.385Z,16.07
2019-06-15T09:35:27.782Z,15.70
2019-06-15T09:37:58.245Z,15.65
2019-06-15T09:40:27.564Z,12.25
2019-06-15T09:42:56.946Z,14.00
2019-06-15T09:45:27.329Z,13.88
2019-06-15T09:47:56.720Z,13.35
2019-06-15T09:50:26.089Z,10.65
2019-06-15T09:52:55.542Z,10.32
2019-06-15T09:55:25.041Z,11.93
2019-06-15T09:57:54.473Z,10.63
2019-06-15T10:00:24.339Z,10.18
2019-06-15T10:02:54.387Z,10.60
2019-06-15T10:05:23.697Z,13.25
2019-06-15T10:07:53.071Z,13.25
2019-06-15T10:10:24.570Z,12.28
2019-06-15T10:12:54.562Z,12.43
2019-06-15T10:15:23.906Z,9.95
2019-06-15T10:17:53.253Z,10.38
2019-06-15T10:20:22.703Z,9.60
2019-06-15T10:22:52.037Z,8.95
2019-06-15T10:25:21.403Z,8.83
2019-06-15T10:27:50.770Z,11.05
2019-06-15T10:30:20.614Z,9.93
2019-06-15T10:32:49.966Z,8.58
2019-06-15T10:35:19.376Z,13.53
2019-06-15T10:37:48.741Z,10.32
2019-06-15T10:40:19.877Z,13.70
2019-06-15T10:42:49.192Z,9.40
2019-06-15T10:45:20.534Z,11.60
2019-06-15T10:47:49.928Z,10.10
2019-06-15T10:50:19.997Z,11.90
2019-06-15T10:52:49.349Z,13.68
2019-06-15T10:55:19.741Z,11.20
2019-06-15T10:57:49.104Z,10.65
2019-06-15T11:00:20.453Z,10.70
2019-06-15T11:02:49.852Z,10.58
2019-06-15T11:05:21.158Z,10.10
2019-06-15T11:07:51.616Z,12.23
2019-06-15T11:10:58.875Z,10.55
2019-06-15T11:13:29.227Z,9.93
2019-06-15T11:16:01.153Z,9.78
2019-06-15T11:18:31.986Z,12.30
2019-06-15T11:21:02.346Z,16.02
2019-06-15T11:23:40.806Z,14.68
2019-06-15T11:26:10.165Z,18.48
2019-06-15T11:28:39.505Z,16.25
2019-06-15T11:31:08.934Z,17.12
2019-06-15T11:33:39.293Z,14.73
2019-06-15T11:36:10.856Z,16.25
2019-06-15T11:38:40.811Z,17.05
2019-06-15T11:41:11.658Z,16.62
2019-06-15T11:43:42.040Z,16.60
2019-06-15T11:46:11.489Z,12.90
2019-06-15T11:48:40.810Z,10.15
2019-06-15T11:51:10.230Z,13.90
2019-06-15T11:53:39.537Z,10.72
2019-06-15T11:56:09.978Z,14.33
2019-06-15T11:58:39.318Z,14.28
2019-06-15T12:01:08.730Z,12.50
2019-06-15T12:03:38.097Z,14.65
2019-06-15T12:06:07.421Z,14.18
2019-06-15T12:08:36.785Z,17.15
2019-06-15T12:11:06.192Z,13.83
2019-06-15T12:13:35.603Z,15.03
2019-06-15T12:16:05.417Z,14.00
2019-06-15T12:18:34.717Z,11.95
2019-06-15T12:21:04.045Z,11.75
2019-06-15T12:23:33.426Z,8.58
2019-06-15T12:26:02.781Z,11.60
2019-06-15T12:28:32.727Z,8.10
2019-06-15T12:31:02.145Z,10.78
2019-06-15T12:33:31.541Z,8.00
2019-06-15T12:36:00.906Z,13.70
2019-06-15T12:38:30.390Z,11.20
2019-06-15T12:40:59.750Z,13.50
2019-06-15T12:43:29.192Z,11.75
2019-06-15T12:45:59.577Z,11.70
2019-06-15T12:48:28.943Z,12.45
2019-06-15T12:50:58.369Z,9.65
2019-06-15T12:53:33.726Z,12.37
2019-06-15T12:56:03.118Z,9.13
2019-06-15T12:58:32.471Z,10.32
2019-06-15T13:01:03.549Z,8.83
2019-06-15T13:03:32.993Z,12.45
2019-06-15T13:06:02.330Z,11.05
2019-06-15T13:08:31.731Z,10.48
2019-06-15T13:11:02.183Z,13.30
2019-06-15T13:13:33.553Z,11.08
2019-06-15T13:16:02.843Z,10.28
2019-06-15T13:18:33.310Z,12.18
2019-06-15T13:21:02.673Z,13.13
2019-06-15T13:23:33.065Z,13.93
2019-06-15T13:26:02.417Z,12.37
2019-06-15T13:28:32.799Z,13.88
2019-06-15T13:31:14.854Z,13.22
2019-06-15T13:33:33.157Z,16.37
2019-06-15T13:36:02.499Z,19.20
2019-06-15T13:38:31.879Z,18.07
2019-06-15T13:41:01.242Z,13.78
2019-06-15T13:43:30.584Z,18.25
2019-06-15T13:45:59.960Z,16.97
2019-06-15T13:48:29.370Z,20.27
2019-06-15T13:50:58.673Z,16.25
2019-06-15T13:53:29.183Z,19.95
2019-06-15T13:55:58.481Z,14.30
2019-06-15T13:58:27.833Z,14.75
2019-06-15T14:01:00.647Z,12.10
2019-06-15T14:03:29.229Z,11.30
2019-06-15T14:05:58.512Z,15.95
2019-06-15T14:08:27.871Z,9.70
2019-06-15T14:10:57.229Z,11.88
2019-06-15T14:13:26.603Z,12.10
2019-06-15T14:15:57.070Z,13.43
2019-06-15T14:18:27.564Z,13.93
2019-06-15T14:20:58.522Z,12.18
2019-06-15T14:23:28.097Z,12.37
2019-06-15T14:25:57.429Z,13.38
2019-06-15T14:28:26.722Z,12.75
2019-06-15T14:30:56.134Z,12.73
2019-06-15T14:33:26.522Z,12.07
2019-06-15T14:35:55.874Z,12.25
2019-06-15T14:38:25.281Z,10.32
2019-06-15T14:40:54.679Z,13.03
2019-06-15T14:43:24.114Z,14.30
2019-06-15T14:45:59.526Z,13.25
2019-06-15T14:48:25.570Z,10.85
2019-06-15T14:50:54.961Z,14.38
2019-06-15T14:53:24.371Z,14.18
2019-06-15T14:55:56.345Z,12.28
2019-06-15T14:58:26.395Z,11.57
2019-06-15T15:00:57.345Z,10.50
2019-06-15T15:03:26.770Z,15.65
2019-06-15T15:05:56.185Z,13.55
2019-06-15T15:08:26.426Z,13.62
2019-06-15T15:10:56.453Z,13.78
2019-06-15T15:13:26.498Z,12.55
2019-06-15T15:15:57.606Z,12.82
2019-06-15T15:18:27.196Z,13.48
2019-06-15T15:20:57.096Z,12.35
2019-06-15T15:23:26.485Z,11.33
2019-06-15T15:25:57.593Z,13.75
2019-06-15T15:28:27.018Z,10.85
2019-06-15T15:30:56.382Z,12.53
2019-06-15T15:33:25.735Z,15.95
2019-06-15T15:35:55.159Z,10.98
2019-06-15T15:38:24.577Z,13.13
2019-06-15T15:40:55.992Z,12.25
2019-06-15T15:43:26.464Z,14.60
2019-06-15T15:45:56.521Z,14.05
2019-06-15T15:48:26.065Z,14.73
2019-06-15T15:50:57.347Z,13.32
2019-06-15T15:53:27.549Z,13.53
2019-06-15T15:55:59.803Z,12.05
2019-06-15T15:58:27.984Z,10.75
2019-06-15T16:00:57.400Z,10.70
2019-06-15T16:03:26.749Z,10.05
2019-06-15T16:05:56.238Z,11.28
2019-06-15T16:08:28.380Z,15.72
2019-06-15T16:10:57.253Z,17.55
2019-06-15T16:13:27.693Z,13.75
2019-06-15T16:15:57.237Z,11.48
2019-06-15T16:18:26.703Z,10.60
2019-06-15T16:20:56.100Z,15.20
2019-06-15T16:23:25.486Z,13.10
2019-06-15T16:25:54.995Z,13.35
2019-06-15T16:28:26.373Z,13.72
2019-06-15T16:31:06.582Z,16.52
2019-06-15T16:33:26.687Z,18.82
2019-06-15T16:35:56.861Z,19.37
2019-06-15T16:38:27.702Z,12.23
2019-06-15T16:40:57.669Z,12.88
2019-06-15T16:43:28.797Z,16.32
2019-06-15T16:45:58.138Z,12.78
2019-06-15T16:48:27.485Z,12.40
2019-06-15T16:50:57.855Z,12.45
2019-06-15T16:53:27.917Z,9.83
2019-06-15T16:55:57.221Z,12.95
2019-06-15T16:58:26.646Z,12.15
2019-06-15T17:00:57.168Z,15.72
2019-06-15T17:03:29.379Z,15.55
2019-06-15T17:05:58.322Z,11.28
2019-06-15T17:08:27.644Z,13.20
2019-06-15T17:10:57.060Z,11.40
2019-06-15T17:13:26.430Z,13.65
2019-06-15T17:15:57.161Z,13.45
2019-06-15T17:18:26.929Z,12.50
2019-06-15T17:20:56.652Z,13.55
2019-06-15T17:23:27.688Z,13.98
2019-06-15T17:25:57.850Z,15.13
2019-06-15T17:28:27.177Z,16.37
2019-06-15T17:30:56.815Z,14.07
2019-06-15T17:33:37.240Z,14.03
2019-06-15T17:36:03.292Z,12.95
2019-06-15T17:38:32.090Z,12.63
2019-06-15T17:41:02.461Z,18.70
2019-06-15T17:43:31.916Z,13.35
2019-06-15T17:46:01.325Z,13.88
2019-06-15T17:48:30.725Z,16.25
2019-06-15T17:51:01.113Z,11.57
2019-06-15T17:53:33.616Z,179.20
2019-06-15T17:56:01.715Z,1090.75
2019-06-15T17:58:32.088Z,379.45
2019-06-15T18:01:02.135Z,381.35
2019-06-15T18:03:31.490Z,164.65
2019-06-15T18:06:00.829Z,112.12
2019-06-15T18:08:30.238Z,83.50
2019-06-15T18:10:59.658Z,53.42
2019-06-15T18:13:29.070Z,595.02
2019-06-15T18:15:58.424Z,1041.83
2019-06-15T18:18:28.029Z,966.35
2019-06-15T18:20:58.042Z,345.05
2019-06-15T18:23:28.424Z,221.68
2019-06-15T18:25:57.778Z,271.52
2019-06-15T18:28:27.209Z,147.93
2019-06-15T18:30:57.597Z,48.80
2019-06-15T18:33:27.371Z,66.53
2019-06-15T18:35:57.470Z,73.67
2019-06-15T18:38:26.821Z,12.40
2019-06-15T18:40:56.421Z,13.98
2019-06-15T18:43:26.449Z,19.00
2019-06-15T18:45:57.433Z,20.60
2019-06-15T18:48:26.801Z,21.52
2019-06-15T18:50:56.232Z,15.75
2019-06-15T18:53:26.877Z,14.47
2019-06-15T18:55:57.242Z,13.72
2019-06-15T18:58:27.618Z,21.35
2019-06-15T19:00:56.995Z,21.65
2019-06-15T19:03:26.604Z,17.80
2019-06-15T19:05:57.134Z,13.75
2019-06-15T19:08:27.042Z,25.68
2019-06-15T19:10:56.467Z,19.55
2019-06-15T19:13:26.900Z,16.83
2019-06-15T19:15:57.356Z,22.57
2019-06-15T19:18:28.485Z,15.33
2019-06-15T19:21:17.102Z,16.00
2019-06-15T19:23:47.195Z,12.90
2019-06-15T19:26:16.590Z,12.97
2019-06-15T19:28:46.106Z,14.10
2019-06-15T19:31:15.589Z,11.70
2019-06-15T19:33:46.843Z,10.50
2019-06-15T19:36:18.054Z,13.27
2019-06-15T19:38:47.433Z,9.90
2019-06-15T19:41:16.757Z,8.93
2019-06-15T19:43:46.772Z,13.93
2019-06-15T19:46:17.139Z,15.97
2019-06-15T19:48:47.185Z,15.07
2019-06-15T19:51:16.812Z,14.50
2019-06-15T19:53:46.347Z,13.57
2019-06-15T19:56:16.206Z,11.23
2019-06-15T19:58:46.135Z,9.93
2019-06-15T20:01:17.162Z,13.80
2019-06-15T20:03:46.602Z,9.47
2019-06-15T20:06:17.025Z,9.53
2019-06-15T20:08:47.058Z,12.47
2019-06-15T20:11:16.983Z,13.10
2019-06-15T20:13:47.481Z,11.57
2019-06-15T20:16:18.555Z,13.10
2019-06-15T20:18:47.894Z,11.00
2019-06-15T20:21:17.258Z,9.97
2019-06-15T20:23:47.717Z,7.87
2019-06-15T20:26:17.098Z,10.37
2019-06-15T20:28:47.604Z,13.40
2019-06-15T20:31:17.017Z,13.90
2019-06-15T20:33:46.746Z,13.90
2019-06-15T20:36:16.829Z,12.53
2019-06-15T20:38:47.210Z,14.33
2019-06-15T20:41:17.542Z,13.57
2019-06-15T20:43:46.894Z,12.10
2019-06-15T20:46:17.229Z,9.90
2019-06-15T20:48:47.329Z,12.40
2019-06-15T20:51:17.310Z,9.27
2019-06-15T20:53:47.486Z,12.70
2019-06-15T20:56:17.137Z,10.80
2019-06-15T20:58:47.129Z,14.70
2019-06-15T21:01:16.543Z,9.17
2019-06-15T21:03:47.042Z,9.93
2019-06-15T21:06:18.221Z,9.83
2019-06-15T21:08:47.577Z,8.57
2019-06-15T21:11:17.749Z,9.57
2019-06-15T21:13:47.047Z,10.30
2019-06-15T21:16:16.475Z,11.03
2019-06-15T21:18:46.663Z,10.03
2019-06-15T21:21:16.729Z,13.00
2019-06-15T21:23:47.078Z,8.67
2019-06-15T21:26:16.520Z,8.50
2019-06-15T21:28:46.507Z,7.93
2019-06-15T21:31:16.699Z,12.60
2019-06-15T21:33:46.876Z,11.10
2019-06-15T21:36:16.804Z,8.90
2019-06-15T21:38:46.813Z,7.80
2019-06-15T21:41:16.877Z,10.33
2019-06-15T21:43:47.151Z,9.40
2019-06-15T21:46:17.194Z,7.93
2019-06-15T21:48:46.988Z,8.33
2019-06-15T21:51:16.965Z,10.27
2019-06-15T21:53:47.069Z,8.87
2019-06-15T21:56:17.103Z,8.17
2019-06-15T21:58:46.385Z,8.93
2019-06-15T22:01:29.570Z,9.80
2019-06-15T22:03:58.952Z,7.73
2019-06-15T22:06:28.237Z,9.90
2019-06-15T22:08:57.551Z,7.37
2019-06-15T22:11:26.845Z,9.33
2019-06-15T22:13:57.122Z,8.53
2019-06-15T22:16:27.726Z,11.93
2019-06-15T22:18:57.646Z,9.97
2019-06-15T22:21:28.048Z,10.67
2019-06-15T22:23:57.990Z,10.90
2019-06-15T22:26:27.297Z,8.80
2019-06-15T22:28:57.069Z,9.13
2019-06-15T22:31:27.311Z,9.57
2019-06-15T22:33:56.822Z,7.83
2019-06-15T22:36:28.578Z,6.00
2019-06-15T22:38:57.797Z,8.97
2019-06-15T22:41:27.145Z,7.27
2019-06-15T22:43:56.966Z,8.57
2019-06-15T22:46:26.899Z,8.67
2019-06-15T22:48:56.470Z,8.93
2019-06-15T22:51:27.515Z,6.30
2019-06-15T22:53:57.822Z,9.37
2019-06-15T22:56:27.186Z,8.30
2019-06-15T22:58:56.979Z,9.73
2019-06-15T23:01:27.054Z,10.70
2019-06-15T23:03:57.143Z,9.03
2019-06-15T23:06:37.528Z,7.80
2019-06-15T23:08:58.267Z,10.47
2019-06-15T23:11:27.603Z,7.93
2019-06-15T23:13:57.560Z,9.47
2019-06-15T23:16:27.669Z,8.50
2019-06-15T23:18:57.458Z,12.70
2019-06-15T23:21:27.069Z,9.23
2019-06-15T23:23:57.041Z,8.83
2019-06-15T23:26:26.429Z,11.93
2019-06-15T23:28:56.454Z,9.87
2019-06-15T23:31:26.581Z,8.43
2019-06-15T23:33:56.184Z,10.00
2019-06-15T23:36:30.894Z,9.10
2019-06-15T23:39:00.237Z,8.40
2019-06-15T23:41:29.573Z,7.33
2019-06-15T23:43:58.859Z,11.07
2019-06-15T23:46:28.173Z,10.97
2019-06-15T23:48:57.493Z,9.37
2019-06-15T23:51:26.817Z,9.40
2019-06-15T23:53:57.171Z,9.40
2019-06-15T23:56:27.220Z,9.60
2019-06-15T23:58:56.527Z,8.90
